Clifton, Kansas
Current Conditions -  °F | °C
As of 6:21 PM on Friday 19 Dec 2014 (Local Time) from KCNK Reporting Station
Haze Haze  
Wind Chill: 24°   Ceiling: 600
Heat Index: 32°   Visibility: 5mi
Dew Point: 31°   Wind: 9mph
Humidity: 96%   Direction: 170°S
Pressure: 30.13"   Gusts: NA
Location:  39.57°N, 97.28°W
Report Text: KCNK 200021Z AUTO 17008KT 5SM BR OVC006 00/M01 A3013 RMK AO2 T00001006
Loading
Personal Weather Stations






























Interactive Weather Map New forecast layout! Learn more

10-Day Weather Forecast

Advertisements
Track Severe Weather on mobile